Time;durP1;ratioP1;P1;durP2;ratioP2;P2;SDS_P1;SDS_P2;PMS_P1;PMS_P2;Temp;Humidity;BMP_temperature;BMP_pressure;BME280_temperature;BME280_humidity;BME280_pressure;Samples;Min_cycle;Max_cycle;Signal;HPM_P1;HPM_P2
2023/07/28 00:00:31;;;;;;;4.87;2.63;;;;;;;19.24;nan;98777.69;4970191;28;20256;-81
2023/07/28 00:02:56;;;;;;;3.43;2.50;;;;;;;19.21;nan;98782.56;4969210;28;20212;-81
2023/07/28 00:05:21;;;;;;;3.37;3.07;;;;;;;19.14;nan;98777.06;4967833;28;20997;-81
2023/07/28 00:07:47;;;;;;;3.10;2.70;;;;;;;19.09;nan;98770.59;4969447;28;20224;-81
2023/07/28 00:10:12;;;;;;;2.97;2.70;;;;;;;19.06;nan;98770.94;4969948;28;20215;-82
2023/07/28 00:12:38;;;;;;;2.60;2.37;;;;;;;19.07;nan;98773.47;4968512;28;20236;-81
2023/07/28 00:15:03;;;;;;;2.80;2.50;;;;;;;19.05;nan;98763.97;4970066;28;20669;-82
2023/07/28 00:17:29;;;;;;;4.70;2.70;;;;;;;19.05;nan;98766.66;4967662;28;21114;-81
2023/07/28 00:19:54;;;;;;;2.63;2.43;;;;;;;19.05;nan;98774.63;4968777;28;20216;-81
2023/07/28 00:22:20;;;;;;;2.60;2.40;;;;;;;19.06;nan;98777.09;4967414;28;20479;-78
2023/07/28 00:24:45;;;;;;;5.90;2.17;;;;;;;19.09;nan;98773.28;4965329;28;20700;-78
2023/07/28 00:27:12;;;;;;;3.03;2.60;;;;;;;19.07;nan;98775.28;4962984;28;20247;-77
2023/07/28 00:29:38;;;;;;;3.50;2.00;;;;;;;19.02;nan;98773.16;4962438;28;20298;-77
2023/07/28 00:32:03;;;;;;;6.47;2.57;;;;;;;19.01;nan;98772.31;4963107;28;20577;-78
2023/07/28 00:34:29;;;;;;;3.00;2.10;;;;;;;19.02;nan;98778.47;4965845;28;20249;-77
2023/07/28 00:36:54;;;;;;;3.10;2.27;;;;;;;19.00;nan;98772.47;4965235;28;20759;-76
2023/07/28 00:39:20;;;;;;;5.93;2.57;;;;;;;18.98;nan;98774.47;4961081;28;20719;-76
2023/07/28 00:41:45;;;;;;;2.47;2.13;;;;;;;18.97;nan;98776.31;4962260;28;20222;-76
2023/07/28 00:44:10;;;;;;;3.40;2.60;;;;;;;18.97;nan;98780.81;4963930;28;20224;-76
2023/07/28 00:46:36;;;;;;;3.50;2.87;;;;;;;19.00;nan;98775.13;4967098;28;20212;-78
2023/07/28 00:49:03;;;;;;;2.60;2.40;;;;;;;19.02;nan;98787.28;4964866;28;20247;-78
2023/07/28 00:51:29;;;;;;;2.97;2.67;;;;;;;18.98;nan;98791.28;4965244;28;20226;-77
2023/07/28 00:53:55;;;;;;;2.97;2.10;;;;;;;18.93;nan;98792.78;4979887;28;20455;-78
2023/07/28 00:56:21;;;;;;;1.50;1.40;;;;;;;18.79;nan;98784.53;4966007;28;20220;-78
2023/07/28 00:58:48;;;;;;;3.03;1.57;;;;;;;18.71;nan;98789.00;4964761;28;20981;-77
2023/07/28 01:01:13;;;;;;;4.03;2.67;;;;;;;18.71;nan;98789.84;4962821;28;20485;-78
2023/07/28 01:03:38;;;;;;;1.70;1.60;;;;;;;18.76;nan;98794.66;4964913;28;20463;-76
2023/07/28 01:06:15;;;;;;;3.20;2.90;;;;;;;18.81;nan;98786.19;4963101;28;20906;-76
2023/07/28 01:08:49;;;;;;;3.33;2.40;;;;;;;18.84;nan;98794.66;4963647;28;20679;-76
2023/07/28 01:11:15;;;;;;;2.50;2.03;;;;;;;18.85;nan;98800.78;4965274;28;20482;-76
2023/07/28 01:13:40;;;;;;;4.40;2.13;;;;;;;18.87;nan;98804.94;4954099;28;20478;-77
2023/07/28 01:16:07;;;;;;;1.93;1.80;;;;;;;18.91;nan;98802.78;4963815;28;20230;-78
2023/07/28 01:18:33;;;;;;;5.37;2.10;;;;;;;18.92;nan;98802.59;4964114;28;20281;-78
2023/07/28 01:21:03;;;;;;;4.53;2.70;;;;;;;18.96;nan;98805.78;4948578;28;20551;-77
2023/07/28 01:23:44;;;;;;;2.77;2.57;;;;;;;18.98;nan;98804.59;4956577;28;20210;-76
2023/07/28 01:26:12;;;;;;;4.20;2.90;;;;;;;19.01;nan;98806.09;4954457;28;20498;-76
2023/07/28 01:28:39;;;;;;;3.43;2.77;;;;;;;19.03;nan;98809.38;4963387;28;20437;-78
2023/07/28 01:31:06;;;;;;;3.30;3.00;;;;;;;19.05;nan;98801.25;4963463;28;20461;-77
2023/07/28 01:33:32;;;;;;;2.30;1.90;;;;;;;19.07;nan;98808.06;4961599;28;20471;-78
2023/07/28 01:36:00;;;;;;;3.42;2.65;;;;;;;19.11;nan;98814.69;4958327;28;20443;-77
2023/07/28 01:38:25;;;;;;;3.57;2.37;;;;;;;19.13;nan;98804.69;4963163;28;20872;-78
2023/07/28 01:40:51;;;;;;;3.23;2.57;;;;;;;19.17;nan;98810.50;4963553;28;20512;-77
2023/07/28 01:43:16;;;;;;;3.70;2.60;;;;;;;19.18;nan;98809.53;4963923;28;20218;-76
2023/07/28 01:45:41;;;;;;;3.00;2.43;;;;;;;19.18;nan;98806.84;4964239;28;20219;-78
2023/07/28 01:48:09;;;;;;;2.90;2.70;;;;;;;19.13;nan;98809.19;4963726;28;20218;-77
2023/07/28 01:50:35;;;;;;;3.43;2.83;;;;;;;19.05;nan;98810.06;4963570;28;20546;-78
2023/07/28 01:53:01;;;;;;;3.83;2.80;;;;;;;18.99;nan;98808.91;4955984;28;20476;-77
2023/07/28 01:55:27;;;;;;;3.00;2.77;;;;;;;18.98;nan;98801.09;4978097;28;20471;-78
2023/07/28 01:58:00;;;;;;;6.47;2.80;;;;;;;18.95;nan;98807.56;4964044;28;20230;-78
2023/07/28 02:00:26;;;;;;;3.77;2.60;;;;;;;18.98;nan;98811.72;4961745;28;20982;-78
2023/07/28 02:02:52;;;;;;;3.87;2.37;;;;;;;19.02;nan;98816.56;4962119;28;20463;-78
2023/07/28 02:05:18;;;;;;;2.63;2.43;;;;;;;19.08;nan;98817.69;4963356;28;20457;-78
2023/07/28 02:07:44;;;;;;;7.87;3.40;;;;;;;19.17;nan;98824.66;4977996;28;20457;-77
2023/07/28 02:10:10;;;;;;;3.40;3.00;;;;;;;19.26;nan;98824.63;4965509;28;20211;-78
2023/07/28 02:12:36;;;;;;;3.03;2.30;;;;;;;19.32;nan;98829.25;4963877;28;20214;-77
2023/07/28 02:15:03;;;;;;;3.53;3.00;;;;;;;19.35;nan;98826.25;4947597;28;20566;-76
2023/07/28 02:17:28;;;;;;;2.77;2.57;;;;;;;19.40;nan;98830.06;4962402;28;20474;-76
2023/07/28 02:19:54;;;;;;;5.23;2.93;;;;;;;19.44;nan;98823.41;4962633;28;20479;-78
2023/07/28 02:22:19;;;;;;;3.53;3.23;;;;;;;19.50;nan;98834.34;4963561;28;20245;-78
2023/07/28 02:24:45;;;;;;;3.30;2.80;;;;;;;19.55;nan;98831.97;4961512;28;20519;-79
2023/07/28 02:27:10;;;;;;;3.00;2.80;;;;;;;19.57;nan;98832.63;4958627;28;20215;-79
2023/07/28 02:29:35;;;;;;;2.73;2.53;;;;;;;19.60;nan;98834.94;4960637;28;20218;-78
2023/07/28 02:32:01;;;;;;;2.53;2.33;;;;;;;19.64;nan;98830.94;4962918;28;20292;-78
2023/07/28 02:34:26;;;;;;;3.07;2.77;;;;;;;19.66;nan;98828.97;4959627;28;20218;-78
2023/07/28 02:36:52;;;;;;;4.27;3.00;;;;;;;19.70;nan;98834.78;4961851;28;20560;-78
2023/07/28 02:39:17;;;;;;;4.63;2.60;;;;;;;19.70;nan;98832.13;4962715;28;20525;-78
2023/07/28 02:41:43;;;;;;;3.17;2.73;;;;;;;19.65;nan;98832.59;4961975;28;20644;-77
2023/07/28 02:44:08;;;;;;;3.53;2.53;;;;;;;19.62;nan;98832.94;4965588;28;20210;-77
2023/07/28 02:46:33;;;;;;;3.53;3.23;;;;;;;19.60;nan;98832.28;4974570;28;20215;-76
2023/07/28 02:48:59;;;;;;;3.50;2.70;;;;;;;19.57;nan;98828.13;4976794;28;20233;-76
2023/07/28 02:51:24;;;;;;;2.80;2.33;;;;;;;19.53;nan;98842.81;4975225;28;20290;-78
2023/07/28 02:53:50;;;;;;;3.17;2.60;;;;;;;19.49;nan;98840.66;4978618;28;20255;-76
2023/07/28 02:56:15;;;;;;;6.10;4.10;;;;;;;19.46;nan;98836.53;4962705;28;20242;-78
2023/07/28 02:58:41;;;;;;;3.30;3.00;;;;;;;19.44;nan;98846.50;4978747;28;20248;-79
2023/07/28 03:01:06;;;;;;;3.10;2.57;;;;;;;19.41;nan;98849.53;4967848;28;20261;-77
2023/07/28 03:03:35;;;;;;;5.47;2.70;;;;;;;19.40;nan;98845.22;4966427;28;20231;-76
2023/07/28 03:06:01;;;;;;;3.20;2.93;;;;;;;19.39;nan;98847.06;4967572;28;20461;-76
2023/07/28 03:08:26;;;;;;;2.73;2.43;;;;;;;19.38;nan;98844.53;4966972;28;20297;-76
2023/07/28 03:11:02;;;;;;;3.80;3.07;;;;;;;19.39;nan;98833.72;4959075;28;20226;-78
2023/07/28 03:13:30;;;;;;;5.90;3.30;;;;;;;19.39;nan;98836.41;4950630;28;20527;-77
2023/07/28 03:15:55;;;;;;;3.03;2.57;;;;;;;19.42;nan;98845.88;4967945;28;20548;-76
2023/07/28 03:18:22;;;;;;;3.93;2.80;;;;;;;19.41;nan;98849.53;4961990;28;20622;-76
2023/07/28 03:20:48;;;;;;;2.83;2.63;;;;;;;19.39;nan;98849.72;4959690;28;20723;-77
2023/07/28 03:23:13;;;;;;;4.30;3.10;;;;;;;19.39;nan;98859.53;4952136;28;20217;-77
2023/07/28 03:25:39;;;;;;;9.60;4.10;;;;;;;19.39;nan;98868.34;4959834;28;20687;-78
2023/07/28 03:28:04;;;;;;;3.00;2.70;;;;;;;19.39;nan;98856.88;4959635;28;20451;-77
2023/07/28 03:30:30;;;;;;;3.47;3.13;;;;;;;19.39;nan;98856.88;4960087;28;20237;-77
2023/07/28 03:32:55;;;;;;;3.50;3.00;;;;;;;19.40;nan;98853.19;4944220;28;20210;-77
2023/07/28 03:35:21;;;;;;;5.30;2.60;;;;;;;19.41;nan;98850.34;4962558;28;20238;-77
2023/07/28 03:37:55;;;;;;;2.50;2.30;;;;;;;19.45;nan;98837.53;4950093;28;20224;-77
2023/07/28 03:40:21;;;;;;;3.63;2.80;;;;;;;19.49;nan;98835.34;4956420;28;20481;-77
2023/07/28 03:42:50;;;;;;;3.50;3.20;;;;;;;19.51;nan;98836.84;4955727;28;20341;-77
2023/07/28 03:45:16;;;;;;;2.83;2.53;;;;;;;19.55;nan;98845.28;4952921;28;20592;-77
2023/07/28 03:47:41;;;;;;;3.80;2.50;;;;;;;19.56;nan;98842.47;4975119;28;20204;-77
2023/07/28 03:50:07;;;;;;;3.40;3.10;;;;;;;19.59;nan;98842.13;4957681;28;20592;-77
2023/07/28 03:52:32;;;;;;;4.40;2.97;;;;;;;19.61;nan;98839.28;4971110;28;20236;-76
2023/07/28 03:54:58;;;;;;;4.70;2.80;;;;;;;19.62;nan;98839.09;4957921;28;20226;-77
2023/07/28 03:57:23;;;;;;;3.07;2.70;;;;;;;19.63;nan;98832.78;4959859;28;20225;-78
2023/07/28 03:59:49;;;;;;;3.20;2.90;;;;;;;19.62;nan;98820.44;4953972;28;20307;-76
2023/07/28 04:02:14;;;;;;;7.13;2.97;;;;;;;19.65;nan;98828.09;4957332;28;20311;-75
2023/07/28 04:04:40;;;;;;;4.23;2.70;;;;;;;19.66;nan;98832.47;4956792;28;20681;-75
2023/07/28 04:07:05;;;;;;;4.20;3.37;;;;;;;19.72;nan;98838.09;4957895;28;20434;-75
2023/07/28 04:09:31;;;;;;;3.23;2.93;;;;;;;19.73;nan;98835.25;4958150;28;20221;-75
2023/07/28 04:11:56;;;;;;;3.80;2.40;;;;;;;19.76;nan;98836.72;4956643;28;20757;-75
2023/07/28 04:14:22;;;;;;;3.33;3.03;;;;;;;19.76;nan;98839.41;4959048;28;20236;-75
2023/07/28 04:16:47;;;;;;;3.63;2.50;;;;;;;19.76;nan;98842.06;4955280;28;20218;-75
2023/07/28 04:19:13;;;;;;;3.53;3.17;;;;;;;19.77;nan;98836.56;4958654;28;20774;-75
2023/07/28 04:21:39;;;;;;;3.83;2.63;;;;;;;19.77;nan;98841.91;4957404;28;20229;-75
2023/07/28 04:24:09;;;;;;;2.73;2.50;;;;;;;19.77;nan;98843.75;4954415;28;20585;-75
2023/07/28 04:26:38;;;;;;;2.90;2.60;;;;;;;19.74;nan;98836.06;4946742;28;20453;-75
2023/07/28 04:29:03;;;;;;;3.20;2.80;;;;;;;19.72;nan;98840.78;4938390;28;20988;-75
2023/07/28 04:31:30;;;;;;;3.23;2.73;;;;;;;19.69;nan;98835.78;4939291;28;20584;-76
2023/07/28 04:34:03;;;;;;;2.60;2.40;;;;;;;19.67;nan;98843.94;4937381;28;20455;-75
2023/07/28 04:36:44;;;;;;;3.63;2.80;;;;;;;19.64;nan;98844.28;4947616;28;20498;-75
2023/07/28 04:39:09;;;;;;;3.93;3.37;;;;;;;19.64;nan;98847.75;4954064;28;20455;-75
2023/07/28 04:41:35;;;;;;;4.57;2.70;;;;;;;19.66;nan;98845.78;4955723;28;20214;-75
2023/07/28 04:44:00;;;;;;;3.67;2.90;;;;;;;19.70;nan;98854.25;4971194;28;20205;-75
2023/07/28 04:46:29;;;;;;;5.97;3.23;;;;;;;19.71;nan;98847.09;4945561;28;20602;-75
2023/07/28 04:48:56;;;;;;;3.57;3.27;;;;;;;19.69;nan;98847.28;4953135;28;20425;-75
2023/07/28 04:51:40;;;;;;;3.07;2.70;;;;;;;19.69;nan;98846.44;4955960;28;21023;-75
2023/07/28 04:54:24;;;;;;;3.33;3.03;;;;;;;19.71;nan;98847.09;4955775;28;20487;-76
2023/07/28 04:56:52;;;;;;;4.20;3.50;;;;;;;19.73;nan;98843.25;4958274;28;20820;-75
2023/07/28 04:59:19;;;;;;;6.07;3.03;;;;;;;19.77;nan;98851.72;4955416;28;20263;-75
2023/07/28 05:01:44;;;;;;;4.07;3.00;;;;;;;19.78;nan;98851.53;4955720;28;20968;-75
2023/07/28 05:04:10;;;;;;;3.70;3.03;;;;;;;19.79;nan;98853.19;4949249;28;20562;-76
2023/07/28 05:06:35;;;;;;;3.10;2.80;;;;;;;19.80;nan;98849.53;4952766;28;20550;-75
2023/07/28 05:09:01;;;;;;;5.20;3.17;;;;;;;19.81;nan;98855.69;4949766;28;20236;-75
2023/07/28 05:11:34;;;;;;;3.00;2.80;;;;;;;19.83;nan;98848.34;4966196;28;20605;-75
2023/07/28 05:13:59;;;;;;;2.97;2.53;;;;;;;19.84;nan;98850.00;4965084;28;20459;-76
2023/07/28 05:16:25;;;;;;;3.40;3.03;;;;;;;19.87;nan;98852.31;4948492;28;20206;-75
2023/07/28 05:19:06;;;;;;;3.63;3.03;;;;;;;19.88;nan;98857.50;4953160;28;20432;-75
2023/07/28 05:21:50;;;;;;;3.73;2.77;;;;;;;19.90;nan;98857.28;4951123;28;20525;-75
2023/07/28 05:24:18;;;;;;;4.20;3.13;;;;;;;19.91;nan;98858.16;4949975;28;20532;-75
2023/07/28 05:26:44;;;;;;;3.90;2.20;;;;;;;19.91;nan;98855.47;4951440;28;20523;-75
2023/07/28 05:29:09;;;;;;;6.63;3.40;;;;;;;19.89;nan;98852.97;4934627;28;20452;-75
2023/07/28 05:31:35;;;;;;;3.70;3.20;;;;;;;19.88;nan;98848.66;4926551;28;20469;-75
2023/07/28 05:34:04;;;;;;;7.70;3.95;;;;;;;19.92;nan;98863.28;4966163;28;20433;-75
2023/07/28 05:36:29;;;;;;;3.83;3.30;;;;;;;19.96;nan;98859.28;4934241;28;20477;-75
2023/07/28 05:38:58;;;;;;;6.10;3.23;;;;;;;19.95;nan;98860.25;4948966;28;20207;-75
2023/07/28 05:41:28;;;;;;;3.87;3.00;;;;;;;19.95;nan;98870.94;4966846;28;20888;-75
2023/07/28 05:43:54;;;;;;;4.23;3.40;;;;;;;19.93;nan;98875.63;4950482;28;20542;-75
2023/07/28 05:46:19;;;;;;;5.83;3.10;;;;;;;19.92;nan;98878.44;4946948;28;20222;-75
2023/07/28 05:48:45;;;;;;;3.30;3.00;;;;;;;19.92;nan;98870.47;4946819;28;20201;-75
2023/07/28 05:51:10;;;;;;;2.90;2.60;;;;;;;19.93;nan;98888.94;4951291;28;20214;-75
2023/07/28 05:53:36;;;;;;;4.23;2.80;;;;;;;19.94;nan;98885.28;4942714;28;20216;-74
2023/07/28 05:56:04;;;;;;;4.30;3.90;;;;;;;19.97;nan;98887.59;4934203;28;20272;-75
2023/07/28 05:58:33;;;;;;;5.07;3.57;;;;;;;19.99;nan;98888.25;4949782;28;20489;-75
2023/07/28 06:00:58;;;;;;;6.60;3.40;;;;;;;20.03;nan;98889.53;4939338;28;20478;-74
2023/07/28 06:03:44;;;;;;;2.67;2.33;;;;;;;20.07;nan;98892.69;4949986;28;20217;-75
2023/07/28 06:06:18;;;;;;;4.77;3.37;;;;;;;20.12;nan;98893.00;4946433;28;20464;-75
2023/07/28 06:08:44;;;;;;;4.80;3.40;;;;;;;20.21;nan;98888.44;4955976;28;20452;-75
2023/07/28 06:11:09;;;;;;;5.17;3.13;;;;;;;20.29;nan;98888.38;4957715;28;20453;-75
2023/07/28 06:13:35;;;;;;;4.47;2.93;;;;;;;20.37;nan;98887.50;4941211;28;20643;-75
2023/07/28 06:16:01;;;;;;;3.50;2.50;;;;;;;20.44;nan;98889.28;4943071;28;20537;-75
2023/07/28 06:18:27;;;;;;;2.80;2.57;;;;;;;20.50;nan;98893.91;4963824;28;21001;-75
2023/07/28 06:21:03;;;;;;;4.93;2.70;;;;;;;20.55;nan;98896.91;4928247;28;20718;-75
2023/07/28 06:23:29;;;;;;;2.73;2.00;;;;;;;20.58;nan;98894.84;4975800;28;20713;-78
2023/07/28 06:25:56;;;;;;;2.77;2.30;;;;;;;20.60;nan;98896.34;4944642;28;20579;-78
2023/07/28 06:28:21;;;;;;;4.50;2.20;;;;;;;20.62;nan;98890.81;4958168;28;20970;-78
2023/07/28 06:30:47;;;;;;;2.97;2.20;;;;;;;20.63;nan;98901.34;4950264;28;20230;-78
2023/07/28 06:33:12;;;;;;;2.20;1.97;;;;;;;20.63;nan;98900.47;4943825;28;20202;-78
2023/07/28 06:35:38;;;;;;;4.53;2.10;;;;;;;20.61;nan;98899.84;4951871;28;20233;-78
2023/07/28 06:38:04;;;;;;;4.87;4.47;;;;;;;20.60;nan;98898.19;4936001;28;20223;-78
2023/07/28 06:40:30;;;;;;;4.70;3.33;;;;;;;20.61;nan;98900.69;4954907;28;21332;-78
2023/07/28 06:42:55;;;;;;;2.90;2.70;;;;;;;20.61;nan;98894.53;4951346;28;20536;-78
2023/07/28 06:45:21;;;;;;;2.57;2.37;;;;;;;20.60;nan;98901.66;4952537;28;20610;-78
2023/07/28 06:47:47;;;;;;;3.30;2.30;;;;;;;20.61;nan;98905.19;4954718;28;20409;-79
2023/07/28 06:50:13;;;;;;;3.27;2.60;;;;;;;20.64;nan;98899.50;4950537;28;20669;-78
2023/07/28 06:52:38;;;;;;;6.27;2.50;;;;;;;20.67;nan;98901.81;4948743;28;20214;-78
2023/07/28 06:55:04;;;;;;;3.33;2.60;;;;;;;20.75;nan;98904.41;4942551;28;20207;-78
2023/07/28 06:57:30;;;;;;;2.60;2.30;;;;;;;20.83;nan;98908.84;4955275;28;20226;-78
2023/07/28 06:59:56;;;;;;;3.10;2.80;;;;;;;20.91;nan;98908.75;4953515;28;20215;-78
2023/07/28 07:02:22;;;;;;;2.83;2.53;;;;;;;20.98;nan;98913.19;4952923;28;20980;-78
2023/07/28 07:04:47;;;;;;;3.60;3.30;;;;;;;21.04;nan;98925.00;4953139;28;20436;-78
2023/07/28 07:07:13;;;;;;;4.23;2.70;;;;;;;21.12;nan;98916.91;4950649;28;20213;-78
2023/07/28 07:09:38;;;;;;;2.80;2.50;;;;;;;21.23;nan;98915.63;4949975;28;20220;-78
2023/07/28 07:12:04;;;;;;;3.80;3.00;;;;;;;21.33;nan;98913.53;4947246;28;20219;-78
2023/07/28 07:14:30;;;;;;;2.67;2.03;;;;;;;21.47;nan;98908.38;4949268;28;20296;-78
2023/07/28 07:16:55;;;;;;;4.50;2.77;;;;;;;21.58;nan;98918.63;4950507;28;20228;-78
2023/07/28 07:19:20;;;;;;;2.50;2.30;;;;;;;21.71;nan;98924.13;4948542;28;20315;-79
2023/07/28 07:21:47;;;;;;;11.67;2.90;;;;;;;21.85;nan;98917.94;4950265;28;20301;-77
2023/07/28 07:24:16;;;;;;;2.87;1.90;;;;;;;22.03;nan;98927.38;4950569;28;20306;-78
2023/07/28 07:26:41;;;;;;;2.53;2.27;;;;;;;22.20;nan;98928.84;4948973;28;20436;-78
2023/07/28 07:29:08;;;;;;;3.33;2.00;;;;;;;22.39;nan;98926.59;4947968;28;20988;-78
2023/07/28 07:31:34;;;;;;;4.60;2.70;;;;;;;22.60;nan;98926.59;4947302;28;20683;-78
2023/07/28 07:33:59;;;;;;;3.13;1.90;;;;;;;22.83;nan;98928.22;4948213;28;20435;-78
2023/07/28 07:36:25;;;;;;;2.60;2.30;;;;;;;23.05;nan;98923.69;4949829;28;20434;-77
2023/07/28 07:38:50;;;;;;;5.07;2.77;;;;;;;23.24;nan;98927.53;4948416;28;20814;-78
2023/07/28 07:41:19;;;;;;;9.00;3.53;;;;;;;23.40;nan;98924.53;4949258;28;20258;-78
2023/07/28 07:43:45;;;;;;;5.90;3.40;;;;;;;23.47;nan;98925.41;4949056;28;20251;-78
2023/07/28 07:46:11;;;;;;;3.07;2.07;;;;;;;23.53;nan;98927.28;4947988;28;20463;-79
2023/07/28 07:48:36;;;;;;;4.53;2.37;;;;;;;23.53;nan;98927.28;4948618;28;20766;-79
2023/07/28 07:51:02;;;;;;;3.43;2.10;;;;;;;23.50;nan;98927.69;4947318;28;20212;-78
2023/07/28 07:53:27;;;;;;;2.63;1.70;;;;;;;23.48;nan;98937.78;4932201;28;20851;-79
2023/07/28 07:58:42;;;;;;;3.60;2.17;;;;;;;23.39;nan;98934.44;5713332;23;20251;-76
2023/07/28 08:01:07;;;;;;;2.33;2.13;;;;;;;23.37;nan;98941.84;4974509;28;20473;-76
2023/07/28 08:03:33;;;;;;;2.80;2.30;;;;;;;23.35;nan;98951.91;4962662;28;20488;-76
2023/07/28 08:05:58;;;;;;;3.70;2.00;;;;;;;23.36;nan;98950.09;4965789;28;20327;-76
2023/07/28 08:08:24;;;;;;;3.30;1.97;;;;;;;23.37;nan;98946.38;4968815;28;20322;-76
2023/07/28 08:10:52;;;;;;;1.80;1.60;;;;;;;23.41;nan;98953.84;4967036;28;20317;-76
2023/07/28 08:13:18;;;;;;;3.37;2.40;;;;;;;23.44;nan;98951.75;4965745;28;20238;-76
2023/07/28 08:15:44;;;;;;;2.83;2.43;;;;;;;23.46;nan;98949.72;4965795;28;21055;-76
2023/07/28 08:18:12;;;;;;;2.30;1.80;;;;;;;23.47;nan;98960.25;4965524;28;20217;-76
2023/07/28 08:20:37;;;;;;;2.50;2.10;;;;;;;23.48;nan;98964.59;4966390;28;20992;-76
2023/07/28 08:23:03;;;;;;;6.50;2.73;;;;;;;23.46;nan;98955.91;4965951;28;20901;-77
2023/07/28 08:25:28;;;;;;;2.20;1.93;;;;;;;23.48;nan;98961.91;4964230;28;20245;-77
2023/07/28 08:27:54;;;;;;;3.70;1.80;;;;;;;23.51;nan;98956.16;4965593;28;20212;-77
2023/07/28 08:30:19;;;;;;;3.87;2.30;;;;;;;23.57;nan;98962.56;4965940;28;20344;-74
2023/07/28 08:32:45;;;;;;;2.70;1.93;;;;;;;23.62;nan;98963.63;4961972;28;20213;-77
2023/07/28 08:35:10;;;;;;;2.53;1.90;;;;;;;23.70;nan;98967.19;4964622;28;20231;-77
2023/07/28 08:37:36;;;;;;;2.70;2.40;;;;;;;23.76;nan;98961.06;4963350;28;20778;-77
2023/07/28 08:40:02;;;;;;;3.73;2.00;;;;;;;23.81;nan;98962.09;4964811;28;20207;-77
2023/07/28 08:42:30;;;;;;;4.27;1.90;;;;;;;23.89;nan;98954.94;4965505;28;20566;-77
2023/07/28 08:44:55;;;;;;;2.93;2.20;;;;;;;24.00;nan;98957.88;4962574;28;20784;-77
2023/07/28 08:47:21;;;;;;;2.83;2.47;;;;;;;24.11;nan;98961.81;4964998;28;20517;-77
2023/07/28 08:49:47;;;;;;;6.50;2.80;;;;;;;24.18;nan;98962.69;4963494;28;20282;-75
2023/07/28 08:52:16;;;;;;;2.20;1.63;;;;;;;24.23;nan;98964.78;4962314;28;20917;-76
2023/07/28 08:54:41;;;;;;;2.83;1.80;;;;;;;24.29;nan;98961.28;4965638;28;20220;-77
2023/07/28 08:57:09;;;;;;;3.57;2.07;;;;;;;24.34;nan;98964.19;4959906;28;20492;-76
2023/07/28 08:59:36;;;;;;;3.73;1.97;;;;;;;24.37;nan;98962.94;4961627;28;20713;-77
2023/07/28 09:02:01;;;;;;;3.27;2.13;;;;;;;24.41;nan;98967.72;4964237;28;20489;-76
2023/07/28 09:04:28;;;;;;;4.47;1.70;;;;;;;24.43;nan;98968.31;4965300;28;20543;-77
2023/07/28 09:06:53;;;;;;;3.92;2.13;;;;;;;24.49;nan;98974.78;4960089;28;20421;-76
2023/07/28 09:09:24;;;;;;;2.60;1.93;;;;;;;24.53;nan;98976.03;4965278;28;20212;-77
2023/07/28 09:11:51;;;;;;;2.10;1.80;;;;;;;24.51;nan;98978.91;4963394;28;20690;-76
2023/07/28 09:14:19;;;;;;;6.83;1.80;;;;;;;24.56;nan;98972.13;4963910;28;20445;-77
2023/07/28 09:16:46;;;;;;;2.87;1.93;;;;;;;24.61;nan;98977.72;4962952;28;20460;-77
2023/07/28 09:19:12;;;;;;;2.30;1.97;;;;;;;24.68;nan;98973.16;4964050;28;20477;-76
2023/07/28 09:21:39;;;;;;;2.03;1.30;;;;;;;24.79;nan;98969.03;4964256;28;20451;-76
2023/07/28 09:24:08;;;;;;;2.00;1.50;;;;;;;24.87;nan;98972.38;4962000;28;20239;-77
2023/07/28 09:26:51;;;;;;;5.90;1.93;;;;;;;24.92;nan;98969.91;4962331;28;20780;-76
2023/07/28 09:29:19;;;;;;;2.30;1.90;;;;;;;24.96;nan;98978.38;4963326;28;20560;-77
2023/07/28 09:31:47;;;;;;;4.07;1.70;;;;;;;24.95;nan;98974.84;4963031;28;20456;-77
2023/07/28 09:34:23;;;;;;;2.60;1.77;;;;;;;24.98;nan;98976.31;4960773;28;20469;-77
2023/07/28 09:36:48;;;;;;;2.95;2.20;;;;;;;25.03;nan;98975.66;4961692;28;20526;-77
2023/07/28 09:39:14;;;;;;;2.43;2.07;;;;;;;25.07;nan;98979.59;4963088;28;20681;-77
2023/07/28 09:41:39;;;;;;;2.33;1.63;;;;;;;25.13;nan;98976.09;4963739;28;20686;-76
2023/07/28 09:44:06;;;;;;;1.50;1.30;;;;;;;25.20;nan;98973.44;4961362;28;20217;-76
2023/07/28 09:46:37;;;;;;;2.20;1.90;;;;;;;25.27;nan;98969.69;4964854;28;20201;-77
2023/07/28 09:49:10;;;;;;;3.37;2.13;;;;;;;25.41;nan;98965.16;4960931;28;21241;-76
2023/07/28 09:51:37;;;;;;;4.23;1.80;;;;;;;25.51;nan;98965.53;4963350;28;20467;-77
2023/07/28 09:54:11;;;;;;;1.60;1.30;;;;;;;25.65;nan;98960.94;4962943;28;20481;-74
2023/07/28 09:56:38;;;;;;;2.47;1.90;;;;;;;25.85;nan;98963.63;4964462;28;20441;-77
2023/07/28 09:59:11;;;;;;;2.50;1.80;;;;;;;26.04;nan;98960.00;4959813;28;20494;-77
2023/07/28 10:01:37;;;;;;;2.73;2.27;;;;;;;26.18;nan;98959.97;4961308;28;20475;-77
2023/07/28 10:04:04;;;;;;;1.83;1.60;;;;;;;26.22;nan;98959.31;4961818;28;20555;-77
2023/07/28 10:06:30;;;;;;;2.60;1.90;;;;;;;26.32;nan;98949.94;4962408;28;20471;-77
2023/07/28 10:08:55;;;;;;;4.10;2.20;;;;;;;26.40;nan;98961.28;4962540;28;21094;-77
2023/07/28 10:11:22;;;;;;;2.70;1.70;;;;;;;26.50;nan;98968.91;4962213;28;20469;-77
2023/07/28 10:13:47;;;;;;;2.67;2.17;;;;;;;26.64;nan;98964.28;4961252;28;20359;-77
2023/07/28 10:16:16;;;;;;;2.33;1.90;;;;;;;26.77;nan;98969.56;4962547;28;20451;-77
2023/07/28 10:18:51;;;;;;;2.83;1.97;;;;;;;26.87;nan;98958.31;4962284;28;20385;-77
2023/07/28 10:21:17;;;;;;;2.10;1.80;;;;;;;26.89;nan;98967.81;4963293;28;20474;-77
2023/07/28 10:23:44;;;;;;;3.17;1.83;;;;;;;26.87;nan;98964.53;4962647;28;20465;-77
2023/07/28 10:26:09;;;;;;;1.77;1.67;;;;;;;26.86;nan;98957.47;4963566;28;20554;-77
2023/07/28 10:28:38;;;;;;;4.70;1.60;;;;;;;26.87;nan;98964.53;4962174;28;20451;-77
2023/07/28 10:31:06;;;;;;;2.67;2.07;;;;;;;26.79;nan;98972.88;4959971;28;20358;-77
2023/07/28 10:33:44;;;;;;;1.87;1.70;;;;;;;26.67;nan;98961.97;4962150;28;21033;-77
2023/07/28 10:36:32;;;;;;;3.00;1.85;;;;;;;26.60;nan;98979.22;4960234;28;20432;-77
2023/07/28 10:39:16;;;;;;;1.90;1.70;;;;;;;26.47;nan;98977.41;4961512;28;20214;-77
2023/07/28 10:42:03;;;;;;;3.50;1.63;;;;;;;26.40;nan;98973.91;4962261;28;20456;-77
2023/07/28 10:44:28;;;;;;;2.90;1.70;;;;;;;26.37;nan;98975.19;4961322;28;20606;-77
2023/07/28 10:46:54;;;;;;;3.03;1.67;;;;;;;26.30;nan;98973.56;4962892;28;20587;-77
2023/07/28 10:49:20;;;;;;;3.70;2.30;;;;;;;26.26;nan;98971.28;4960475;28;20562;-75
2023/07/28 10:51:46;;;;;;;2.80;1.53;;;;;;;26.18;nan;98976.09;4964432;28;20290;-75
2023/07/28 10:54:16;;;;;;;3.77;1.80;;;;;;;26.11;nan;98976.13;4963106;28;20184;-77
2023/07/28 10:56:42;;;;;;;1.87;1.70;;;;;;;26.04;nan;98978.03;4961550;28;21222;-77
2023/07/28 10:59:07;;;;;;;2.40;1.90;;;;;;;25.99;nan;98973.28;4962179;28;20528;-77
2023/07/28 11:01:34;;;;;;;2.27;2.00;;;;;;;25.94;nan;98966.88;4962014;28;20208;-77
2023/07/28 11:04:26;;;;;;;4.00;2.37;;;;;;;25.86;nan;98961.75;4962162;28;20251;-77
2023/07/28 11:06:51;;;;;;;3.25;2.78;;;;;;;25.83;nan;98961.13;4958064;28;20473;-77
2023/07/28 11:09:18;;;;;;;3.70;2.47;;;;;;;25.82;nan;98959.44;4961785;28;20712;-77
2023/07/28 11:11:44;;;;;;;2.93;1.77;;;;;;;25.84;nan;98956.56;4964215;28;20214;-77
2023/07/28 11:14:09;;;;;;;4.50;2.40;;;;;;;25.91;nan;98956.56;4961302;28;20488;-77
2023/07/28 11:16:36;;;;;;;4.33;1.87;;;;;;;25.95;nan;98949.69;4963252;28;20235;-76
2023/07/28 11:19:03;;;;;;;2.90;2.10;;;;;;;26.00;nan;98945.31;4963640;28;20215;-76
2023/07/28 11:21:30;;;;;;;3.20;2.07;;;;;;;26.02;nan;98939.75;4965989;28;20477;-77
2023/07/28 11:23:55;;;;;;;2.43;2.23;;;;;;;26.07;nan;98947.19;4964526;28;20514;-77
2023/07/28 11:26:22;;;;;;;2.23;2.00;;;;;;;26.14;nan;98947.94;4965911;28;20467;-76
2023/07/28 11:28:48;;;;;;;4.17;1.90;;;;;;;26.13;nan;98955.22;4965155;28;20575;-77
2023/07/28 11:31:13;;;;;;;3.80;2.63;;;;;;;26.13;nan;98954.38;4963294;28;20468;-77
2023/07/28 11:33:39;;;;;;;2.50;2.30;;;;;;;26.09;nan;98956.69;4963210;28;20486;-76
2023/07/28 11:36:06;;;;;;;3.20;2.20;;;;;;;26.04;nan;98959.19;4965454;28;20235;-76
2023/07/28 11:38:32;;;;;;;3.30;2.27;;;;;;;25.99;nan;98956.31;4966260;28;20511;-77
2023/07/28 11:40:58;;;;;;;2.17;1.73;;;;;;;25.98;nan;98954.69;4962275;28;20487;-77
2023/07/28 11:43:25;;;;;;;3.10;1.93;;;;;;;25.98;nan;98957.38;4963089;28;20449;-76
2023/07/28 11:45:51;;;;;;;2.50;2.30;;;;;;;25.93;nan;98958.00;4966406;28;20448;-77
2023/07/28 11:48:17;;;;;;;3.63;2.07;;;;;;;25.91;nan;98954.69;4964579;28;20784;-77
2023/07/28 11:50:44;;;;;;;4.50;2.83;;;;;;;25.89;nan;98955.94;4964650;28;20223;-76
2023/07/28 11:53:11;;;;;;;7.73;2.60;;;;;;;25.90;nan;98952.22;4964679;28;20560;-76